Time;durP1;ratioP1;P1;durP2;ratioP2;P2;SDS_P1;SDS_P2;PMS_P1;PMS_P2;Temp;Humidity;BMP_temperature;BMP_pressure;BME280_temperature;BME280_humidity;BME280_pressure;Samples;Min_cycle;Max_cycle;Signal;HPM_P1;HPM_P2
2022/05/19 00:00:34;;;;;;;15.43;3.78;;;;;;;9.33;69.98;96021.03;4981193;28;20046;-76
2022/05/19 00:02:59;;;;;;;15.73;3.65;;;;;;;9.29;69.20;96015.41;4983500;28;20516;-75
2022/05/19 00:05:25;;;;;;;3.80;3.50;;;;;;;9.25;69.62;96014.19;4983475;28;20038;-75
2022/05/19 00:07:50;;;;;;;4.60;3.80;;;;;;;9.20;69.52;96007.97;4982614;28;20810;-75
2022/05/19 00:10:15;;;;;;;5.43;3.42;;;;;;;9.15;69.90;96018.16;4971453;28;20042;-75
2022/05/19 00:12:41;;;;;;;10.68;4.18;;;;;;;9.14;70.05;96016.56;5003403;28;20095;-75
2022/05/19 00:15:07;;;;;;;7.15;4.15;;;;;;;9.12;69.65;96013.34;5002863;28;20046;-75
2022/05/19 00:17:32;;;;;;;5.68;4.50;;;;;;;9.07;70.13;96015.69;5021935;28;20041;-75
2022/05/19 00:19:58;;;;;;;10.30;5.13;;;;;;;9.06;69.84;96009.72;5022171;28;20037;-76
2022/05/19 00:22:23;;;;;;;6.38;5.25;;;;;;;9.09;69.20;96019.69;4986534;28;20051;-75
2022/05/19 00:24:49;;;;;;;4.72;4.28;;;;;;;9.08;69.80;96017.31;5021500;28;20057;-75
2022/05/19 00:27:14;;;;;;;6.03;3.90;;;;;;;9.01;70.19;96019.88;4988002;28;20412;-75
2022/05/19 00:29:40;;;;;;;8.00;4.05;;;;;;;8.98;70.27;96020.25;5003663;28;20037;-75
2022/05/19 00:32:09;;;;;;;11.73;4.50;;;;;;;8.91;70.14;96022.00;5020745;28;20018;-76
2022/05/19 00:34:40;;;;;;;11.65;4.78;;;;;;;8.92;70.11;96032.19;4996335;28;20076;-75
2022/05/19 00:37:05;;;;;;;15.27;4.75;;;;;;;8.93;69.59;96030.41;5004418;28;20501;-75
2022/05/19 00:39:33;;;;;;;14.07;4.80;;;;;;;8.89;69.85;96029.19;5026296;28;20108;-75
2022/05/19 00:44:43;;;;;;;7.45;4.47;;;;;;;8.82;69.86;96029.16;5022615;28;20115;-75
2022/05/19 00:47:16;;;;;;;7.63;4.38;;;;;;;8.75;69.81;96030.91;5020881;28;20026;-74
2022/05/19 00:49:42;;;;;;;9.10;4.60;;;;;;;8.75;69.92;96028.28;5003383;28;20041;-74
2022/05/19 00:52:29;;;;;;;9.38;4.45;;;;;;;8.73;69.72;96030.28;4985987;28;20091;-74
2022/05/19 00:55:11;;;;;;;12.73;4.80;;;;;;;8.75;69.41;96035.28;5011305;28;20034;-74
2022/05/19 00:57:39;;;;;;;10.65;4.53;;;;;;;8.68;69.46;96048.22;4995841;28;20090;-74
2022/05/19 01:00:08;;;;;;;9.27;4.20;;;;;;;8.63;69.78;96045.41;4987769;28;20040;-74
2022/05/19 01:02:36;;;;;;;6.10;4.60;;;;;;;8.60;69.58;96045.75;5003811;28;20083;-74
2022/05/19 01:05:11;;;;;;;6.35;4.35;;;;;;;8.56;69.34;96050.50;5016092;28;20052;-74
2022/05/19 01:07:48;;;;;;;5.28;4.53;;;;;;;8.52;69.82;96053.69;5013860;28;20034;-75
2022/05/19 01:10:26;;;;;;;7.40;4.38;;;;;;;8.48;69.54;96055.84;4989777;28;20119;-75
2022/05/19 01:12:51;;;;;;;9.27;4.75;;;;;;;8.45;69.89;96058.00;5011491;28;20116;-74
2022/05/19 01:15:17;;;;;;;5.55;4.40;;;;;;;8.42;70.03;96052.19;5020573;28;20034;-74
2022/05/19 01:17:45;;;;;;;7.05;5.00;;;;;;;8.39;69.70;96060.34;5002987;28;20038;-74
2022/05/19 01:20:29;;;;;;;8.30;4.28;;;;;;;8.37;69.91;96057.16;4971382;28;20061;-74
2022/05/19 01:22:54;;;;;;;4.35;4.00;;;;;;;8.39;70.21;96056.97;5020793;28;20025;-74
2022/05/19 01:25:54;;;;;;;6.60;4.05;;;;;;;8.45;70.31;96058.00;5021024;28;20029;-74
2022/05/19 01:28:19;;;;;;;10.10;4.43;;;;;;;8.42;69.70;96062.56;5021196;28;20033;-75
2022/05/19 01:30:45;;;;;;;5.18;4.07;;;;;;;8.40;70.00;96059.38;5003239;28;20038;-74
2022/05/19 01:33:10;;;;;;;7.32;4.47;;;;;;;8.38;69.64;96053.56;5003308;28;20041;-75
2022/05/19 01:35:36;;;;;;;12.30;4.82;;;;;;;8.42;69.47;96065.16;5002910;28;20030;-74
2022/05/19 01:38:02;;;;;;;12.55;4.68;;;;;;;8.40;69.25;96061.16;5003820;28;20026;-75
2022/05/19 01:40:35;;;;;;;5.70;4.38;;;;;;;8.40;69.09;96056.78;4994439;28;20041;-74
2022/05/19 01:43:22;;;;;;;4.93;3.90;;;;;;;8.41;69.06;96060.16;5003101;28;20037;-74
2022/05/19 01:45:55;;;;;;;8.20;3.63;;;;;;;8.29;69.82;96061.63;5020571;28;20124;-75
2022/05/19 01:48:42;;;;;;;3.80;3.38;;;;;;;8.28;68.68;96067.78;5002373;28;20113;-74
2022/05/19 01:51:21;;;;;;;7.50;3.17;;;;;;;8.27;69.54;96064.41;5019453;28;20029;-74
2022/05/19 01:54:01;;;;;;;20.10;4.28;;;;;;;8.18;69.37;96068.13;5020550;28;20132;-74
2022/05/19 01:56:38;;;;;;;12.80;4.05;;;;;;;8.17;69.91;96076.88;5019998;28;20113;-73
2022/05/19 01:59:25;;;;;;;12.05;3.95;;;;;;;8.14;69.88;96072.09;4994075;28;20121;-74
2022/05/19 02:01:58;;;;;;;21.00;5.63;;;;;;;8.16;69.29;96075.28;5010019;28;20050;-74
2022/05/19 02:04:39;;;;;;;15.60;4.80;;;;;;;8.21;69.03;96075.53;4987218;28;20036;-74
2022/05/19 02:07:05;;;;;;;22.35;4.95;;;;;;;8.30;69.79;96077.00;4986983;28;20029;-74
2022/05/19 02:09:34;;;;;;;10.73;5.28;;;;;;;8.32;69.05;96077.63;5002341;28;20482;-74
2022/05/19 02:12:12;;;;;;;;;;;;;;;;;;;;;
2022/05/19 02:14:46;;;;;;;12.25;4.85;;;;;;;8.28;69.43;96078.97;5003906;28;20036;-73
2022/05/19 02:17:14;;;;;;;9.40;4.03;;;;;;;8.36;69.50;96081.47;5026662;28;20409;-74
2022/05/19 02:19:41;;;;;;;9.20;3.85;;;;;;;8.42;68.78;96075.53;5002977;28;20041;-74
2022/05/19 02:22:08;;;;;;;15.05;3.72;;;;;;;8.50;68.47;96084.97;5002751;28;20164;-74
2022/05/19 02:24:35;;;;;;;10.63;3.80;;;;;;;8.46;68.97;96075.16;4985861;28;20136;-73
2022/05/19 02:27:35;;;;;;;9.15;3.50;;;;;;;8.52;68.14;96069.22;5002024;28;20029;-75
2022/05/19 02:30:03;;;;;;;13.27;4.30;;;;;;;8.51;68.50;96078.00;5005006;28;20053;-75
2022/05/19 02:32:28;;;;;;;27.95;4.90;;;;;;;8.55;68.60;96080.03;5002768;28;20486;-75
2022/05/19 02:34:54;;;;;;;14.02;3.92;;;;;;;8.56;68.34;96081.63;5019981;28;20037;-75
2022/05/19 02:37:19;;;;;;;22.60;3.58;;;;;;;8.66;67.97;96082.13;5002037;28;20025;-75
2022/05/19 02:39:45;;;;;;;6.20;3.80;;;;;;;8.67;67.96;96077.72;5001750;28;20084;-75
2022/05/19 02:42:10;;;;;;;11.45;4.13;;;;;;;8.70;68.38;96077.34;5001444;28;20117;-75
2022/05/19 02:44:35;;;;;;;10.52;3.88;;;;;;;8.73;68.81;96084.75;5019654;28;20030;-75
2022/05/19 02:47:01;;;;;;;22.27;5.40;;;;;;;8.74;68.37;96086.34;4976925;28;21592;-75
2022/05/19 02:49:26;;;;;;;20.15;4.93;;;;;;;8.81;68.13;96084.63;5019231;28;20030;-74
2022/05/19 02:51:52;;;;;;;28.83;5.57;;;;;;;8.90;67.73;96082.66;5001332;28;20033;-74
2022/05/19 02:54:21;;;;;;;19.98;4.90;;;;;;;8.91;68.68;96079.88;5002204;28;20033;-74
2022/05/19 02:56:47;;;;;;;19.60;7.60;;;;;;;8.99;69.46;96084.13;5019424;28;20026;-74
2022/05/19 02:59:12;;;;;;;26.50;4.63;;;;;;;9.09;67.81;96081.97;5001846;28;20112;-75
2022/05/19 03:01:38;;;;;;;13.65;4.57;;;;;;;9.16;67.77;96088.03;5002144;28;20469;-75
2022/05/19 03:04:03;;;;;;;14.70;4.97;;;;;;;9.14;67.51;96079.63;5019268;28;20084;-75
2022/05/19 03:06:29;;;;;;;6.25;4.80;;;;;;;9.16;68.28;96082.84;5002234;28;20067;-76
2022/05/19 03:08:54;;;;;;;10.07;4.68;;;;;;;9.17;68.46;96084.44;5002267;28;20038;-76
2022/05/19 03:11:20;;;;;;;12.63;3.78;;;;;;;9.27;68.77;96090.09;5011546;28;20052;-75
2022/05/19 03:13:45;;;;;;;10.50;4.03;;;;;;;9.39;68.26;96082.53;5013675;28;20033;-75
2022/05/19 03:16:10;;;;;;;20.80;3.72;;;;;;;9.44;68.27;96085.38;5000601;28;20129;-75
2022/05/19 03:18:36;;;;;;;7.45;4.45;;;;;;;9.48;67.46;96091.78;4993307;28;20034;-75
2022/05/19 03:21:01;;;;;;;9.07;4.40;;;;;;;9.53;66.85;96086.78;5002255;28;20108;-75
2022/05/19 03:23:27;;;;;;;10.05;7.00;;;;;;;9.56;67.45;96088.19;5001746;28;20474;-75
2022/05/19 03:25:54;;;;;;;12.23;5.50;;;;;;;9.56;67.42;96089.00;5002194;28;20045;-75
2022/05/19 03:28:19;;;;;;;10.57;5.25;;;;;;;9.62;67.29;96103.81;5001107;28;20040;-75
2022/05/19 03:30:45;;;;;;;9.65;4.85;;;;;;;9.68;66.58;96101.44;4984981;28;20037;-75
2022/05/19 03:33:10;;;;;;;6.88;5.63;;;;;;;9.68;67.21;96106.63;5000589;28;20038;-75
2022/05/19 03:35:36;;;;;;;17.70;5.47;;;;;;;9.70;66.94;96104.63;5026047;28;20060;-75
2022/05/19 03:38:01;;;;;;;10.23;5.40;;;;;;;9.78;67.41;96101.88;5018330;28;20029;-74
2022/05/19 03:40:26;;;;;;;14.55;5.22;;;;;;;9.84;66.72;96114.09;4997583;28;20594;-75
2022/05/19 03:42:52;;;;;;;12.95;4.80;;;;;;;9.81;66.26;96110.09;4988222;28;20037;-75
2022/05/19 03:45:17;;;;;;;21.88;5.05;;;;;;;9.82;66.70;96119.47;5023128;28;20029;-74
2022/05/19 03:47:43;;;;;;;8.70;5.57;;;;;;;9.84;66.48;96119.28;5004876;28;20050;-75
2022/05/19 03:50:09;;;;;;;9.95;3.95;;;;;;;9.85;66.27;96118.28;5004706;28;20029;-75
2022/05/19 03:52:39;;;;;;;6.15;4.30;;;;;;;9.90;65.65;96128.88;5004086;28;20509;-76
2022/05/19 03:55:04;;;;;;;18.63;4.53;;;;;;;9.89;65.05;96129.88;4987828;28;20430;-75
2022/05/19 03:57:30;;;;;;;7.05;4.32;;;;;;;9.82;64.77;96142.06;5022006;28;20033;-75
2022/05/19 03:59:56;;;;;;;14.57;5.05;;;;;;;9.70;64.71;96141.81;4979279;28;20041;-75
2022/05/19 04:02:21;;;;;;;12.40;5.15;;;;;;;9.68;64.86;96143.00;5003788;28;20481;-75
2022/05/19 04:04:46;;;;;;;13.25;5.03;;;;;;;9.70;64.58;96143.59;5022118;28;20084;-75
2022/05/19 04:07:12;;;;;;;13.45;4.82;;;;;;;9.71;65.23;96142.59;5022026;28;20030;-75
2022/05/19 04:09:37;;;;;;;15.18;4.82;;;;;;;9.74;64.42;96142.22;4991729;28;20033;-75
2022/05/19 04:12:03;;;;;;;7.93;4.78;;;;;;;9.80;64.06;96149.25;5006767;28;20034;-75
2022/05/19 04:14:29;;;;;;;10.07;4.80;;;;;;;10.02;64.31;96145.53;5004545;28;20033;-74
2022/05/19 04:16:55;;;;;;;10.55;5.00;;;;;;;10.23;63.42;96148.00;5003738;28;20034;-75
2022/05/19 04:19:20;;;;;;;8.35;4.90;;;;;;;10.45;62.95;96150.47;5005979;28;20029;-75
2022/05/19 04:21:46;;;;;;;6.53;4.28;;;;;;;10.77;62.44;96146.28;4989793;28;20044;-76
2022/05/19 04:24:12;;;;;;;16.70;5.20;;;;;;;11.18;62.56;96151.25;5004352;28;20034;-77
2022/05/19 04:26:37;;;;;;;20.73;5.80;;;;;;;12.09;60.27;96147.81;4988399;28;20052;-75
2022/05/19 04:29:03;;;;;;;22.17;5.53;;;;;;;13.47;55.69;96157.25;5004494;28;20030;-75
2022/05/19 04:31:28;;;;;;;16.30;5.30;;;;;;;15.56;50.08;96152.91;4987920;28;20095;-75
2022/05/19 04:33:54;;;;;;;7.15;5.60;;;;;;;18.13;43.46;96141.91;5003192;28;20421;-74
2022/05/19 04:36:25;;;;;;;11.15;5.15;;;;;;;20.59;39.08;96138.81;5021828;28;20033;-77
2022/05/19 04:38:51;;;;;;;12.13;5.00;;;;;;;22.84;34.30;96142.47;4988070;28;20494;-75
2022/05/19 04:41:17;;;;;;;16.60;5.20;;;;;;;24.16;31.87;96146.50;5021565;28;20306;-77
2022/05/19 04:43:45;;;;;;;12.32;5.15;;;;;;;25.14;29.87;96142.97;5003036;28;20025;-75
2022/05/19 04:46:11;;;;;;;9.27;5.07;;;;;;;25.86;28.76;96141.72;4986762;28;20052;-78
2022/05/19 04:48:36;;;;;;;14.77;5.10;;;;;;;27.41;26.94;96142.28;4986128;28;20120;-75
2022/05/19 04:51:02;;;;;;;8.52;5.95;;;;;;;26.40;27.05;96143.59;5019504;28;20029;-76
2022/05/19 04:53:28;;;;;;;13.38;6.78;;;;;;;26.38;27.27;96142.31;5019539;28;20033;-74
2022/05/19 04:55:54;;;;;;;21.55;8.98;;;;;;;27.47;26.15;96139.19;5010526;28;20489;-77
2022/05/19 04:58:19;;;;;;;35.25;15.15;;;;;;;27.67;25.23;96142.47;4986999;28;20033;-75
2022/05/19 05:00:48;;;;;;;35.60;18.42;;;;;;;26.03;26.69;96145.38;5011393;28;20056;-75
2022/05/19 05:03:14;;;;;;;34.85;16.77;;;;;;;24.70;28.50;96151.34;5011131;28;20105;-75
2022/05/19 05:05:39;;;;;;;17.55;11.68;;;;;;;23.29;30.74;96150.06;5004860;28;20025;-78
2022/05/19 05:08:05;;;;;;;18.50;9.10;;;;;;;22.06;32.88;96159.03;4994829;28;20489;-74
2022/05/19 05:10:30;;;;;;;15.52;7.57;;;;;;;21.52;33.47;96155.22;5020866;28;20088;-75
2022/05/19 05:12:56;;;;;;;8.65;6.40;;;;;;;21.16;34.70;96164.22;5019884;28;20022;-74
2022/05/19 05:15:21;;;;;;;15.05;6.63;;;;;;;21.28;34.18;96162.91;5004395;28;20029;-74
2022/05/19 05:17:47;;;;;;;13.98;7.45;;;;;;;20.84;35.94;96153.91;5021239;28;20065;-74
2022/05/19 05:20:13;;;;;;;11.95;7.07;;;;;;;22.03;33.75;96159.56;4986468;28;20040;-75
2022/05/19 05:22:39;;;;;;;11.13;7.60;;;;;;;24.58;29.29;96158.22;4994783;28;20481;-75
2022/05/19 05:25:06;;;;;;;11.90;5.18;;;;;;;26.82;26.52;96149.56;5002198;28;20063;-75
2022/05/19 05:27:32;;;;;;;14.30;5.22;;;;;;;28.84;23.38;96169.31;4987920;28;20034;-75
2022/05/19 05:30:00;;;;;;;12.65;5.03;;;;;;;31.03;20.71;96161.66;5001645;28;20045;-75
2022/05/19 05:32:25;;;;;;;12.95;4.60;;;;;;;33.06;18.91;96162.78;5021142;28;20037;-76
2022/05/19 05:34:54;;;;;;;10.93;4.75;;;;;;;34.78;17.20;96152.34;5004455;28;20040;-75
2022/05/19 05:37:19;;;;;;;24.55;5.55;;;;;;;36.15;16.31;96155.25;4990339;28;20112;-76
2022/05/19 05:39:44;;;;;;;15.50;4.80;;;;;;;37.42;15.19;96160.78;5008033;28;20409;-75
2022/05/19 05:42:10;;;;;;;14.27;4.78;;;;;;;38.40;14.27;96161.22;5026915;28;20033;-76
2022/05/19 05:44:35;;;;;;;14.52;4.32;;;;;;;39.22;13.60;96148.84;5021414;28;20371;-76
2022/05/19 05:47:01;;;;;;;13.75;4.35;;;;;;;39.82;12.69;96159.03;5019778;28;20037;-76
2022/05/19 05:49:26;;;;;;;12.98;4.88;;;;;;;40.32;12.78;96163.69;5002993;28;20092;-76
2022/05/19 05:51:52;;;;;;;17.60;5.55;;;;;;;40.95;12.51;96167.47;5020336;28;20060;-76
2022/05/19 05:54:17;;;;;;;13.60;5.00;;;;;;;40.25;12.20;96161.78;5020007;28;20121;-76
2022/05/19 05:56:43;;;;;;;8.48;4.88;;;;;;;40.46;12.07;96158.25;5021125;28;20406;-76
2022/05/19 05:59:08;;;;;;;9.82;4.00;;;;;;;40.67;11.98;96162.84;5020816;28;20037;-76
2022/05/19 06:01:33;;;;;;;16.83;7.53;;;;;;;41.35;11.41;96160.66;5002563;28;20900;-76
2022/05/19 06:06:28;;;;;;;11.18;8.13;;;;;;;41.34;11.29;96161.84;5050006;23;20041;-76
2022/05/19 06:08:54;;;;;;;7.53;5.28;;;;;;;41.80;11.22;96167.00;5041310;28;20102;-76
2022/05/19 06:11:20;;;;;;;13.18;3.40;;;;;;;42.11;10.55;96170.69;5040083;28;20389;-76
2022/05/19 06:13:45;;;;;;;16.58;4.03;;;;;;;42.20;10.60;96165.53;5011403;28;20029;-76
2022/05/19 06:16:11;;;;;;;7.18;2.95;;;;;;;42.26;10.39;96166.63;5041402;28;20102;-76
2022/05/19 06:18:36;;;;;;;10.40;2.95;;;;;;;41.98;10.18;96166.84;5040126;28;20029;-76
2022/05/19 06:21:03;;;;;;;11.63;4.67;;;;;;;41.31;11.45;96166.13;5039510;28;20033;-76
2022/05/19 06:23:28;;;;;;;16.23;4.50;;;;;;;40.79;11.52;96170.59;5041989;28;20485;-76
2022/05/19 06:25:54;;;;;;;8.88;3.85;;;;;;;40.37;11.58;96160.59;5039596;28;20033;-76
2022/05/19 06:28:22;;;;;;;12.02;4.60;;;;;;;39.66;12.17;96163.31;5038274;28;20040;-75
2022/05/19 06:30:47;;;;;;;8.20;4.15;;;;;;;38.82;12.86;96157.19;5037901;28;20037;-76
2022/05/19 06:33:17;;;;;;;14.77;3.92;;;;;;;39.51;12.21;96157.81;5038072;28;20489;-76
2022/05/19 06:35:42;;;;;;;17.48;3.95;;;;;;;38.72;13.24;96169.56;5038154;28;20092;-76
2022/05/19 06:38:08;;;;;;;12.05;4.00;;;;;;;38.65;13.29;96156.75;5038213;23;20065;-77
2022/05/19 06:40:34;;;;;;;12.43;3.63;;;;;;;38.05;13.35;96167.94;4980479;28;20042;-77
2022/05/19 06:43:00;;;;;;;10.27;3.03;;;;;;;37.54;13.55;96163.22;4979811;28;20061;-77
2022/05/19 06:45:26;;;;;;;7.45;2.67;;;;;;;37.10;13.96;96159.63;4971516;28;20125;-76
2022/05/19 06:47:52;;;;;;;4.40;2.58;;;;;;;35.88;15.20;96156.38;4979900;28;20031;-77
2022/05/19 06:50:17;;;;;;;11.15;2.90;;;;;;;35.28;15.90;96164.94;4996213;28;20483;-77
2022/05/19 06:52:51;;;;;;;14.52;3.20;;;;;;;34.45;16.57;96164.38;4978316;28;20026;-74
2022/05/19 06:55:17;;;;;;;9.35;3.20;;;;;;;33.93;16.67;96170.88;4993084;28;20098;-77
2022/05/19 06:57:43;;;;;;;8.52;2.45;;;;;;;33.30;17.24;96168.06;4978762;28;20050;-77
2022/05/19 07:00:10;;;;;;;6.20;2.88;;;;;;;32.89;17.67;96165.78;4980656;28;20034;-77
2022/05/19 07:02:35;;;;;;;18.52;3.20;;;;;;;32.21;18.02;96164.50;4979568;28;20034;-77
2022/05/19 07:05:01;;;;;;;10.75;3.22;;;;;;;31.54;18.61;96167.66;4979294;28;20124;-75
2022/05/19 07:07:26;;;;;;;12.40;3.10;;;;;;;30.83;19.91;96176.69;4979485;28;20034;-77
2022/05/19 07:09:52;;;;;;;4.82;2.75;;;;;;;30.06;20.27;96168.00;4981429;28;20045;-78
2022/05/19 07:12:21;;;;;;;8.38;3.33;;;;;;;28.94;21.87;96168.22;4983870;28;20034;-78
2022/05/19 07:14:47;;;;;;;18.38;4.18;;;;;;;28.41;21.93;96174.63;4984282;28;20038;-78
2022/05/19 07:17:13;;;;;;;12.57;3.80;;;;;;;27.97;23.38;96175.56;4984582;28;20462;-78
2022/05/19 07:22:22;;;;;;;13.57;3.88;;;;;;;27.26;24.21;96164.84;4981714;28;20053;-76
2022/05/19 07:24:49;;;;;;;9.30;3.60;;;;;;;27.02;25.42;96164.38;4983245;28;20038;-76
2022/05/19 07:27:14;;;;;;;15.05;3.85;;;;;;;26.92;25.44;96166.16;4983554;28;20117;-77
2022/05/19 07:29:40;;;;;;;6.13;3.38;;;;;;;26.72;24.36;96169.28;4984290;28;20122;-76
2022/05/19 07:32:06;;;;;;;7.80;3.05;;;;;;;26.57;24.34;96161.63;4983940;28;20069;-80
2022/05/19 07:34:32;;;;;;;7.13;3.60;;;;;;;26.48;24.81;96166.06;4969213;28;20034;-80
2022/05/19 07:36:58;;;;;;;10.82;3.50;;;;;;;26.26;24.81;96162.25;4988363;28;20030;-80
2022/05/19 07:39:24;;;;;;;12.57;2.90;;;;;;;26.18;25.50;96157.59;4985277;28;20121;-78
2022/05/19 07:41:51;;;;;;;7.85;3.30;;;;;;;26.16;25.57;96158.97;4986576;28;20093;-79
2022/05/19 07:44:16;;;;;;;7.60;3.08;;;;;;;26.05;25.89;96158.41;4986437;28;20584;-78
2022/05/19 07:46:42;;;;;;;11.45;3.08;;;;;;;25.96;25.57;96157.53;4988000;28;20124;-79
2022/05/19 07:49:07;;;;;;;5.82;2.90;;;;;;;25.78;25.46;96155.75;4984555;28;20039;-78
2022/05/19 07:51:39;;;;;;;12.50;3.25;;;;;;;25.70;25.71;96157.22;4986565;28;20034;-78
2022/05/19 07:54:10;;;;;;;11.95;3.63;;;;;;;25.62;25.37;96156.00;5001308;28;20526;-78
2022/05/19 07:56:36;;;;;;;11.20;2.60;;;;;;;25.52;24.85;96161.50;4986061;28;20045;-78
2022/05/19 07:59:02;;;;;;;16.58;3.30;;;;;;;25.28;25.87;96166.19;4985890;28;20117;-78
2022/05/19 08:01:29;;;;;;;15.40;2.50;;;;;;;25.14;24.83;96166.94;4985979;28;20066;-79
2022/05/19 08:03:58;;;;;;;9.00;2.53;;;;;;;24.96;24.40;96158.97;4982042;28;20034;-78
2022/05/19 08:06:29;;;;;;;11.20;2.38;;;;;;;24.73;24.02;96156.13;4983322;28;20058;-78
2022/05/19 08:08:55;;;;;;;5.57;2.33;;;;;;;24.58;23.54;96158.22;4992072;28;20041;-78
2022/05/19 08:11:21;;;;;;;8.38;2.75;;;;;;;24.17;25.34;96161.34;5006074;28;20038;-79
2022/05/19 08:16:30;;;;;;;6.80;2.30;;;;;;;23.80;25.58;96162.84;4984630;28;20113;-78
2022/05/19 08:18:56;;;;;;;3.22;1.92;;;;;;;23.78;26.60;96157.03;4991031;28;20494;-78
2022/05/19 08:21:22;;;;;;;2.92;2.10;;;;;;;23.79;25.41;96150.66;4972868;28;20034;-78
2022/05/19 08:23:50;;;;;;;5.75;2.22;;;;;;;23.65;25.97;96155.03;4998131;28;20086;-79
2022/05/19 08:26:16;;;;;;;7.72;2.25;;;;;;;23.57;25.30;96156.44;4982612;28;20045;-78
2022/05/19 08:28:42;;;;;;;7.13;2.63;;;;;;;23.43;25.19;96154.69;4984045;28;20035;-78
2022/05/19 08:31:08;;;;;;;5.00;2.45;;;;;;;23.33;25.99;96150.28;4988089;28;20038;-78
2022/05/19 08:33:34;;;;;;;7.70;2.55;;;;;;;23.23;27.10;96148.50;5004595;28;20046;-78
2022/05/19 08:36:00;;;;;;;13.10;2.58;;;;;;;23.23;26.39;96147.72;4995932;28;20148;-78
2022/05/19 08:38:26;;;;;;;7.25;2.35;;;;;;;22.72;26.87;96145.44;5000410;28;20078;-78
2022/05/19 08:41:22;;;;;;;10.07;2.08;;;;;;;22.26;27.03;96147.56;4982412;28;20050;-77
2022/05/19 08:44:09;;;;;;;6.07;2.30;;;;;;;22.12;26.66;96156.09;4981481;28;20080;-77
2022/05/19 08:46:43;;;;;;;5.40;1.90;;;;;;;22.03;27.22;96149.75;4997418;28;20145;-78
2022/05/19 08:49:31;;;;;;;8.75;1.95;;;;;;;22.05;25.36;96147.66;4989399;28;20026;-78
2022/05/19 08:52:04;;;;;;;15.20;1.95;;;;;;;22.05;26.01;96136.28;4987127;28;20113;-77
2022/05/19 08:54:31;;;;;;;14.80;2.05;;;;;;;22.04;25.29;96139.97;4950548;28;20056;-78
2022/05/19 08:57:04;;;;;;;14.55;1.90;;;;;;;22.06;25.43;96138.66;4982264;28;20034;-77
2022/05/19 08:59:54;;;;;;;6.38;1.50;;;;;;;22.08;24.76;96120.63;4965801;28;20033;-77
2022/05/19 09:02:41;;;;;;;5.22;1.48;;;;;;;22.16;24.25;96128.00;4982895;28;20061;-77
2022/05/19 09:05:42;;;;;;;2.67;1.55;;;;;;;22.18;24.81;96127.75;4998318;28;20060;-77
2022/05/19 09:08:25;;;;;;;4.65;1.88;;;;;;;22.08;25.12;96115.31;4981782;28;20407;-77
2022/05/19 09:11:20;;;;;;;3.13;1.20;;;;;;;22.09;23.33;96127.50;4982922;28;20070;-78
2022/05/19 09:13:53;;;;;;;2.58;1.10;;;;;;;21.97;20.82;96126.22;4980740;28;20199;-78
2022/05/19 09:16:24;;;;;;;2.80;1.30;;;;;;;21.84;21.68;96112.50;4982484;28;20449;-78
2022/05/19 09:19:03;;;;;;;5.93;1.20;;;;;;;21.91;24.10;96109.53;4982233;28;20058;-78
2022/05/19 09:21:28;;;;;;;5.05;1.35;;;;;;;22.02;23.30;96110.31;4973197;28;20363;-78
2022/05/19 09:23:54;;;;;;;3.63;1.38;;;;;;;21.91;22.69;96106.91;4974441;28;20033;-78
2022/05/19 09:26:43;;;;;;;1.52;1.25;;;;;;;21.84;23.29;96101.91;4984927;28;20120;-78
2022/05/19 09:29:12;;;;;;;10.23;1.50;;;;;;;21.72;23.25;96103.28;4983295;28;20034;-78
2022/05/19 09:32:17;;;;;;;7.95;1.40;;;;;;;21.71;23.18;96120.22;4996479;28;20034;-78
2022/05/19 09:34:49;;;;;;;2.38;1.42;;;;;;;21.31;23.63;96100.72;4983937;28;20047;-78
2022/05/19 09:37:20;;;;;;;3.63;1.35;;;;;;;21.06;24.64;96092.81;4978366;28;20085;-78
2022/05/19 09:40:14;;;;;;;3.38;1.30;;;;;;;20.91;24.24;96105.00;4983362;28;20039;-78
2022/05/19 09:42:58;;;;;;;7.22;1.80;;;;;;;20.62;25.23;96096.78;4981754;28;20396;-78
2022/05/19 09:45:27;;;;;;;3.70;1.48;;;;;;;20.34;26.05;96103.34;4980781;28;20037;-78
2022/05/19 09:48:06;;;;;;;4.40;1.60;;;;;;;20.27;25.37;96097.50;4963422;28;20038;-78
2022/05/19 09:50:43;;;;;;;3.58;1.67;;;;;;;20.36;25.48;96081.94;4980900;28;20076;-77
2022/05/19 09:53:29;;;;;;;3.30;2.13;;;;;;;20.05;25.46;96092.44;4982222;28;20045;-78
2022/05/19 09:56:00;;;;;;;2.80;1.60;;;;;;;20.14;25.53;96095.34;4988416;28;20049;-78
2022/05/19 09:58:27;;;;;;;2.67;1.40;;;;;;;20.25;26.76;96083.78;4986526;28;20380;-78
2022/05/19 10:00:54;;;;;;;3.72;1.30;;;;;;;20.26;25.31;96079.28;5000983;28;20038;-78
2022/05/19 10:03:23;;;;;;;4.03;1.42;;;;;;;20.33;25.70;96070.03;4983135;28;20038;-78
2022/05/19 10:05:50;;;;;;;3.47;1.38;;;;;;;20.07;25.68;96065.78;4997890;28;20061;-78
2022/05/19 10:08:26;;;;;;;5.72;1.40;;;;;;;20.13;26.81;96072.63;4981462;28;20042;-78
2022/05/19 10:11:03;;;;;;;5.03;1.40;;;;;;;20.22;26.74;96068.44;4989273;28;20038;-78
2022/05/19 10:13:39;;;;;;;5.40;1.67;;;;;;;20.06;25.64;96059.69;4998711;28;20037;-78
2022/05/19 10:16:40;;;;;;;2.75;1.67;;;;;;;20.04;26.33;96071.59;4981105;28;20069;-77
2022/05/19 10:19:39;;;;;;;9.38;1.90;;;;;;;19.90;26.72;96075.75;4976054;28;20042;-78
2022/05/19 10:22:43;;;;;;;2.83;1.73;;;;;;;19.78;29.14;96063.56;4998702;28;20026;-79
2022/05/19 10:25:38;;;;;;;8.40;1.83;;;;;;;19.83;27.23;96059.34;4987117;28;20525;-78
2022/05/19 10:33:55;;;;;;;5.85;1.70;;;;;;;19.92;27.43;96047.25;5211505;23;20064;-78
2022/05/19 10:36:55;;;;;;;3.25;1.38;;;;;;;19.93;26.81;96044.34;4994670;28;20232;-78
2022/05/19 10:39:25;;;;;;;7.10;2.35;;;;;;;19.89;25.95;96039.84;5018582;28;20113;-79
2022/05/19 10:42:02;;;;;;;7.05;1.80;;;;;;;19.93;25.55;96038.28;5000303;28;20041;-80
2022/05/19 10:44:55;;;;;;;8.27;1.65;;;;;;;19.94;26.91;96038.00;4991580;28;20034;-78
2022/05/19 10:47:39;;;;;;;8.88;1.40;;;;;;;19.93;26.55;96043.56;5008563;28;20048;-78
2022/05/19 10:50:23;;;;;;;6.43;1.73;;;;;;;19.84;25.95;96032.69;5012423;28;20100;-79
2022/05/19 10:52:54;;;;;;;4.63;1.65;;;;;;;19.78;26.93;96026.63;5012785;28;20097;-79
2022/05/19 10:55:49;;;;;;;5.32;1.52;;;;;;;19.72;27.26;96027.66;5013144;28;20030;-79
2022/05/19 10:58:39;;;;;;;1.58;1.48;;;;;;;19.72;27.78;96030.31;5011428;28;20502;-79
2022/05/19 11:01:27;;;;;;;2.78;1.98;;;;;;;19.72;28.26;96027.66;5013609;28;20108;-78
2022/05/19 11:03:59;;;;;;;2.58;2.28;;;;;;;19.77;28.38;96024.25;4999234;28;20056;-78
2022/05/19 11:06:45;;;;;;;5.00;1.50;;;;;;;19.86;27.90;96022.69;5022273;28;20029;-78
2022/05/19 11:09:16;;;;;;;3.17;1.70;;;;;;;19.89;28.29;96031.94;5018037;28;20060;-79
2022/05/19 11:11:51;;;;;;;1.50;1.40;;;;;;;19.88;26.85;96019.78;4998313;28;20044;-79
2022/05/19 11:14:52;;;;;;;4.88;2.05;;;;;;;19.93;28.08;96012.66;5012687;28;20637;-79
2022/05/19 11:17:50;;;;;;;2.78;1.63;;;;;;;19.98;27.88;96014.50;5001562;28;20525;-79
2022/05/19 11:20:31;;;;;;;10.00;1.70;;;;;;;19.92;26.67;96007.66;4957568;28;20568;-79
2022/05/19 11:23:04;;;;;;;4.15;1.52;;;;;;;19.95;27.03;95999.19;4978143;28;20095;-79
2022/05/19 11:28:19;;;;;;;4.07;1.70;;;;;;;19.83;26.96;96001.28;4997528;28;20076;-79
2022/05/19 11:30:47;;;;;;;9.07;2.20;;;;;;;19.75;27.48;95987.56;4993884;28;20069;-80
2022/05/19 11:33:14;;;;;;;8.23;1.90;;;;;;;19.50;28.52;95990.88;4992776;28;20116;-79
2022/05/19 11:35:50;;;;;;;2.28;2.00;;;;;;;19.27;27.99;95985.25;4976823;28;20046;-78
2022/05/19 11:38:23;;;;;;;2.45;1.75;;;;;;;19.34;28.59;95980.53;4976813;28;20048;-78
2022/05/19 11:41:11;;;;;;;6.47;2.45;;;;;;;19.37;27.02;95982.66;5008606;28;20046;-78
2022/05/19 11:43:52;;;;;;;5.90;1.75;;;;;;;19.44;27.45;95972.66;4976829;28;20049;-77
2022/05/19 11:46:18;;;;;;;5.60;1.70;;;;;;;19.56;29.76;95960.06;5009570;28;20605;-79
2022/05/19 11:55:19;;;;;;;6.53;1.88;;;;;;;19.81;28.28;95961.16;5007922;28;20095;-78
2022/05/19 11:57:56;;;;;;;2.45;1.60;;;;;;;19.84;28.26;95955.34;4993059;28;20046;-77
2022/05/19 12:00:38;;;;;;;4.85;1.98;;;;;;;19.78;28.30;95939.53;4994477;28;20429;-79
2022/05/19 12:03:23;;;;;;;;;;;;;;;19.95;27.70;95944.56;4978321;28;20052;-78
2022/05/19 12:06:03;;;;;;;1.55;1.45;;;;;;;19.92;26.53;95941.66;4978567;28;19917;-78
2022/05/19 12:08:46;;;;;;;2.47;1.63;;;;;;;19.86;25.23;95940.06;5010953;28;20108;-77
2022/05/19 12:11:28;;;;;;;2.10;1.90;;;;;;;19.89;26.03;95940.34;5013969;28;20113;-77
2022/05/19 12:14:16;;;;;;;5.78;1.73;;;;;;;19.96;25.52;95934.78;5013379;28;20038;-77
2022/05/19 12:16:57;;;;;;;1.63;1.52;;;;;;;19.97;25.29;95933.72;4993848;28;20061;-78